Fate, Texas
Current Conditions -  °F | °C
As of 11:55 PM on Saturday 22 Nov 2014 (Local Time) from KF46 Reporting Station
Haze Haze  
Wind Chill: 58°   Ceiling: Unl
Heat Index: 58°   Visibility: 4mi
Dew Point: 58°   Wind: 5mph
Humidity: 100%   Direction: 130°SE
Pressure: 29.67"   Gusts: NA
Location:  32.94°N, 96.38°W
Report Text: KF46 230555Z AUTO 13004KT 4SM BR CLR 15/15 A2967 RMK AO2 60027 T01460146 10165 20145 401910145
Loading
Personal Weather Stations






























Interactive Weather Map New forecast layout! Learn more

10-Day Weather Forecast

Advertisements
Track Severe Weather on mobile